Airfield :
LOGIN :

Register | Disclaimer

   EN    FR    IT 

 










Legend :    VFR   Marginal VFR   IFR   Intensive IFR   Very Intensive IFR
Visi :
Ceiling :
>= 8 km
>= 3000ft
5 to 8 km
1000 to 3000 ft
1500m to 5 km
500 to 1000 ft
800 to 1500m
200 to 500 ft
< 800m
< 200 ft
Symbols :   Thunderstorms  Fog  Heavy snow  Heavy precipitations  Wind > 20 kt
SIGMETs :     Misc.  Thunderstorms  Icing  Turbulence  Mountain Waves  Volcanic Ashes







- Airport Elevation : 12 ft
- IATA code : BCN


LEBL - Barcelone

CURRENT METAR :
  • 251200Z 22012KT 9999 FEW012 BKN017 18/14 Q1010 NOSIG

EXPIRED METARs :
  • 251130Z 21011KT 9999 FEW012 BKN017 18/14 Q1011 NOSIG
  • 251100Z 20009KT 170V240 9999 FEW014 18/13 Q1011 NOSIG
  • 251030Z 20008KT 130V240 9999 FEW014 17/13 Q1011 NOSIG
  • 251000Z 17007KT 130V220 9999 FEW014 17/14 Q1011 NOSIG
  • 250930Z 20008KT 170V230 9999 FEW012 17/13 Q1012 NOSIG

TAF TAF LEBL
Valid from the 25 at 12:00 until the 26 at 12:00 UTC


251100Z 2512/2612 22010KT 9999 FEW040 TX20/2512Z TN11/2606Z
TEMPO 2514/2517 22012G25KT
BECMG 2518/2520 VRB03KT
PROB30
TEMPO 2518/2612 4000 RA BKN014
BECMG 2608/2610 10010KT
No reported NOTAMs for that airfield.



MET'MAP, your aeronautical weather chart ! - Copyright ORBIFLY December 2007 - Disclaimer

ORBIFLY MET'MAP TEAM :

Programming & Development : Alexandra Zaïnal
Concept & Development : Baudouin d'Aumeries
Co-Development & Prog : Marc-Olivier Méhu
Technical & hardware support : Manuel Goepfert

Contact : metmap@orbifly.com




SOURCES & CREDITS :

   NOAA